Time,TemperatureF,DewpointF,PressureIn,WindDirection,WindDirectionDegrees,WindSpeedMPH,WindSpeedGustMPH,Humidity,HourlyPrecipIn,Conditions,Clouds,dailyrainin,SoftwareType,DateUTC
2013-04-16 00:02:00,41.0,39.0,29.93,WNW,284,13.0,19.0,93,0.00,,,0.00,,2013-04-16 07:02:00,
2013-04-16 00:11:00,41.0,39.0,29.93,WNW,284,13.0,19.0,93,0.00,,,0.00,,2013-04-16 07:11:00,
2013-04-16 00:21:00,41.0,39.0,29.93,West,276,8.0,13.0,94,0.00,,,0.00,,2013-04-16 07:21:00,
2013-04-16 00:32:00,42.0,40.0,29.93,West,274,5.0,10.0,92,0.00,,,0.00,,2013-04-16 07:32:00,
2013-04-16 00:42:00,42.0,40.0,29.93,West,274,5.0,10.0,92,0.00,,,0.00,,2013-04-16 07:42:00,
2013-04-16 00:53:00,42.0,40.0,29.93,WNW,282,6.0,9.0,91,0.00,,,0.00,,2013-04-16 07:53:00,
2013-04-16 01:02:00,42.0,39.0,29.93,West,280,5.0,7.0,90,0.00,,,0.00,,2013-04-16 08:02:00,
2013-04-16 01:11:00,42.0,39.0,29.93,West,280,5.0,7.0,90,0.00,,,0.00,,2013-04-16 08:11:00,
2013-04-16 01:22:00,42.0,40.0,29.92,West,278,4.0,5.0,91,0.00,,,0.00,,2013-04-16 08:22:00,
2013-04-16 01:32:00,42.0,40.0,29.92,West,263,6.0,7.0,92,0.00,,,0.00,,2013-04-16 08:32:00,
2013-04-16 01:42:00,42.0,40.0,29.92,West,263,6.0,7.0,92,0.00,,,0.00,,2013-04-16 08:42:00,
2013-04-16 01:51:00,41.0,39.0,29.92,West,273,6.0,9.0,94,0.00,,,0.00,,2013-04-16 08:51:00,
2013-04-16 02:02:00,40.0,39.0,29.92,West,265,6.0,8.0,95,0.00,,,0.00,,2013-04-16 09:02:00,
2013-04-16 02:11:00,40.0,39.0,29.92,West,265,6.0,8.0,95,0.00,,,0.00,,2013-04-16 09:11:00,
2013-04-16 02:22:00,40.0,39.0,29.91,West,265,3.0,5.0,95,0.00,,,0.00,,2013-04-16 09:22:00,
2013-04-16 02:32:00,40.0,39.0,29.91,West,265,0.0,3.0,95,0.00,,,0.00,,2013-04-16 09:32:00,
2013-04-16 02:42:00,40.0,39.0,29.91,West,265,0.0,3.0,95,0.00,,,0.00,,2013-04-16 09:42:00,
2013-04-16 02:52:00,41.0,40.0,29.91,West,265,0.0,0.0,96,0.00,,,0.00,,2013-04-16 09:52:00,
2013-04-16 03:03:00,42.0,41.0,29.91,ENE,74,6.0,8.0,95,0.00,,,0.00,,2013-04-16 10:03:00,
2013-04-16 03:12:00,42.0,41.0,29.91,ENE,74,6.0,8.0,95,0.00,,,0.00,,2013-04-16 10:12:00,
2013-04-16 03:22:00,42.0,41.0,29.91,ENE,78,7.0,9.0,95,0.00,,,0.00,,2013-04-16 10:22:00,
2013-04-16 03:32:00,42.0,41.0,29.91,ENE,78,6.0,9.0,95,0.00,,,0.00,,2013-04-16 10:32:00,
2013-04-16 03:42:00,42.0,41.0,29.91,ENE,78,6.0,9.0,95,0.00,,,0.00,,2013-04-16 10:42:00,
2013-04-16 03:52:00,43.0,41.0,29.91,ENE,78,0.0,5.0,94,0.00,,,0.00,,2013-04-16 10:52:00,
2013-04-16 04:02:00,42.0,40.0,29.92,WNW,285,4.0,5.0,94,0.00,,,0.00,,2013-04-16 11:02:00,
2013-04-16 04:12:00,42.0,40.0,29.92,WNW,285,4.0,5.0,94,0.00,,,0.00,,2013-04-16 11:12:00,
2013-04-16 04:22:00,41.0,40.0,29.91,West,267,6.0,8.0,95,0.00,,,0.00,,2013-04-16 11:22:00,
2013-04-16 04:32:00,41.0,40.0,29.91,West,267,4.0,6.0,95,0.00,,,0.00,,2013-04-16 11:32:00,
2013-04-16 04:41:00,41.0,40.0,29.91,West,267,4.0,6.0,95,0.00,,,0.00,,2013-04-16 11:41:00,
2013-04-16 04:52:00,42.0,41.0,29.91,West,269,2.0,3.0,95,0.00,,,0.00,,2013-04-16 11:52:00,
2013-04-16 05:02:00,42.0,40.0,29.91,West,269,1.0,3.0,94,0.00,,,0.00,,2013-04-16 12:02:00,
2013-04-16 05:11:00,42.0,40.0,29.91,West,269,1.0,3.0,94,0.00,,,0.00,,2013-04-16 12:11:00,
2013-04-16 05:21:00,43.0,39.0,29.91,North,355,3.0,5.0,87,0.00,,,0.00,,2013-04-16 12:21:00,
2013-04-16 05:32:00,43.0,40.0,29.92,WNW,282,2.0,4.0,88,0.00,,,0.00,,2013-04-16 12:32:00,
2013-04-16 05:42:00,43.0,40.0,29.92,WNW,282,2.0,4.0,88,0.00,,,0.00,,2013-04-16 12:42:00,
2013-04-16 05:52:00,43.0,39.0,29.92,NNE,22,1.0,4.0,87,0.00,,,0.00,,2013-04-16 12:52:00,
2013-04-16 06:02:00,43.0,39.0,29.93,East,83,4.0,7.0,85,0.00,,,0.00,,2013-04-16 13:02:00,
2013-04-16 06:11:00,43.0,39.0,29.93,East,83,4.0,7.0,85,0.00,,,0.00,,2013-04-16 13:11:00,
2013-04-16 06:22:00,43.0,38.0,29.93,NE,54,7.0,10.0,84,0.00,,,0.00,,2013-04-16 13:22:00,
2013-04-16 06:32:00,43.0,39.0,29.93,NE,42,0.0,6.0,86,0.00,,,0.00,,2013-04-16 13:32:00,
2013-04-16 06:42:00,43.0,39.0,29.93,NE,42,0.0,6.0,86,0.00,,,0.00,,2013-04-16 13:42:00,
2013-04-16 06:52:00,43.0,39.0,29.93,ENE,59,3.0,8.0,87,0.00,,,0.00,,2013-04-16 13:52:00,
2013-04-16 07:02:00,44.0,40.0,29.94,NNE,26,3.0,7.0,85,0.00,,,0.00,,2013-04-16 14:02:00,
2013-04-16 07:11:00,44.0,40.0,29.94,NNE,26,3.0,7.0,85,0.00,,,0.00,,2013-04-16 14:11:00,
2013-04-16 07:22:00,43.0,39.0,29.95,East,98,4.0,7.0,86,0.00,,,0.00,,2013-04-16 14:22:00,
2013-04-16 07:32:00,44.0,40.0,29.96,SSE,164,4.0,7.0,87,0.00,,,0.00,,2013-04-16 14:32:00,
2013-04-16 07:42:00,44.0,40.0,29.96,SSE,164,4.0,7.0,87,0.00,,,0.00,,2013-04-16 14:42:00,
2013-04-16 07:52:00,45.0,41.0,29.97,SE,130,0.0,5.0,87,0.00,,,0.00,,2013-04-16 14:52:00,
2013-04-16 08:02:00,45.0,40.0,29.97,SE,130,0.0,3.0,84,0.00,,,0.00,,2013-04-16 15:02:00,
2013-04-16 08:11:00,45.0,40.0,29.97,SE,130,0.0,3.0,84,0.00,,,0.00,,2013-04-16 15:11:00,
2013-04-16 08:22:00,45.0,41.0,29.98,NE,56,0.0,6.0,87,0.00,,,0.00,,2013-04-16 15:22:00,
2013-04-16 08:32:00,47.0,37.0,29.98,NE,46,9.0,13.0,67,0.00,,,0.00,,2013-04-16 15:32:00,
2013-04-16 08:43:00,47.0,37.0,29.98,NE,46,9.0,13.0,67,0.00,,,0.00,,2013-04-16 15:43:00,
2013-04-16 08:52:00,48.0,36.0,29.98,NE,51,6.0,14.0,64,0.00,,,0.00,,2013-04-16 15:52:00,
2013-04-16 09:03:00,49.0,35.0,29.99,NE,47,5.0,11.0,59,0.00,,,0.00,,2013-04-16 16:03:00,
2013-04-16 09:12:00,49.0,35.0,29.99,NE,47,5.0,11.0,59,0.00,,,0.00,,2013-04-16 16:12:00,
2013-04-16 09:22:00,51.0,35.0,29.99,East,84,0.0,8.0,54,0.00,,,0.00,,2013-04-16 16:22:00,
2013-04-16 09:32:00,48.0,38.0,30.00,West,269,4.0,10.0,68,0.00,,,0.00,,2013-04-16 16:32:00,
2013-04-16 09:42:00,48.0,38.0,30.00,West,269,4.0,10.0,68,0.00,,,0.00,,2013-04-16 16:42:00,
2013-04-16 09:52:00,48.0,40.0,30.01,SSW,209,3.0,10.0,74,0.00,,,0.00,,2013-04-16 16:52:00,
2013-04-16 10:02:00,48.0,39.0,30.01,WSW,240,9.0,11.0,72,0.00,,,0.00,,2013-04-16 17:02:00,
2013-04-16 10:12:00,48.0,39.0,30.01,WSW,240,9.0,11.0,72,0.00,,,0.00,,2013-04-16 17:12:00,
2013-04-16 10:22:00,48.0,38.0,30.01,West,271,7.0,12.0,67,0.00,,,0.00,,2013-04-16 17:22:00,
2013-04-16 10:32:00,49.0,39.0,30.02,WNW,291,10.0,16.0,69,0.00,,,0.00,,2013-04-16 17:32:00,
2013-04-16 10:43:00,49.0,39.0,30.02,WNW,291,10.0,16.0,69,0.00,,,0.00,,2013-04-16 17:43:00,
2013-04-16 10:52:00,49.0,39.0,30.02,WSW,252,9.0,16.0,68,0.00,,,0.00,,2013-04-16 17:52:00,
2013-04-16 11:02:00,50.0,39.0,30.02,West,277,9.0,16.0,65,0.00,,,0.00,,2013-04-16 18:02:00,
2013-04-16 11:12:00,50.0,39.0,30.02,West,277,9.0,16.0,65,0.00,,,0.00,,2013-04-16 18:12:00,
2013-04-16 11:22:00,51.0,39.0,30.02,West,276,8.0,16.0,63,0.00,,,0.00,,2013-04-16 18:22:00,
2013-04-16 11:32:00,51.0,38.0,30.02,West,265,12.0,17.0,60,0.00,,,0.00,,2013-04-16 18:32:00,
2013-04-16 11:42:00,51.0,38.0,30.02,West,265,12.0,17.0,60,0.00,,,0.00,,2013-04-16 18:42:00,
2013-04-16 11:52:00,51.0,39.0,30.02,WNW,301,11.0,24.0,64,0.00,,,0.00,,2013-04-16 18:52:00,
2013-04-16 12:02:00,51.0,38.0,30.02,WNW,291,10.0,19.0,62,0.00,,,0.00,,2013-04-16 19:02:00,
2013-04-16 12:11:00,51.0,38.0,30.02,WNW,291,10.0,19.0,62,0.00,,,0.00,,2013-04-16 19:11:00,
2013-04-16 12:22:00,51.0,39.0,30.02,West,277,14.0,21.0,63,0.00,,,0.00,,2013-04-16 19:22:00,
2013-04-16 12:32:00,51.0,38.0,30.01,West,269,15.0,23.0,61,0.00,,,0.00,,2013-04-16 19:32:00,
2013-04-16 12:42:00,51.0,38.0,30.01,West,269,15.0,23.0,61,0.00,,,0.00,,2013-04-16 19:42:00,
2013-04-16 12:52:00,51.0,38.0,30.01,WNW,300,13.0,21.0,60,0.00,,,0.00,,2013-04-16 19:52:00,
2013-04-16 13:02:00,52.0,38.0,30.01,NW,307,11.0,22.0,58,0.00,,,0.00,,2013-04-16 20:02:00,
2013-04-16 13:12:00,52.0,38.0,30.01,NW,307,11.0,22.0,58,0.00,,,0.00,,2013-04-16 20:12:00,
2013-04-16 13:22:00,52.0,38.0,30.01,West,273,12.0,21.0,58,0.00,,,0.00,,2013-04-16 20:22:00,
2013-04-16 13:32:00,52.0,38.0,30.01,West,268,13.0,21.0,58,0.00,,,0.00,,2013-04-16 20:32:00,
2013-04-16 13:42:00,52.0,38.0,30.01,West,268,13.0,21.0,58,0.00,,,0.00,,2013-04-16 20:42:00,
2013-04-16 13:52:00,53.0,38.0,30.01,WNW,288,13.0,20.0,56,0.00,,,0.00,,2013-04-16 20:52:00,
2013-04-16 14:02:00,53.0,37.0,30.02,West,265,11.0,22.0,55,0.00,,,0.00,,2013-04-16 21:02:00,
2013-04-16 14:11:00,53.0,37.0,30.02,West,265,11.0,22.0,55,0.00,,,0.00,,2013-04-16 21:11:00,
2013-04-16 14:21:00,53.0,37.0,30.01,WNW,284,12.0,21.0,54,0.00,,,0.00,,2013-04-16 21:21:00,
2013-04-16 14:32:00,53.0,37.0,30.02,WNW,289,14.0,21.0,54,0.00,,,0.00,,2013-04-16 21:32:00,
2013-04-16 14:42:00,53.0,37.0,30.02,WNW,289,14.0,21.0,54,0.00,,,0.00,,2013-04-16 21:42:00,
2013-04-16 14:52:00,53.0,35.0,30.02,West,270,15.0,22.0,51,0.00,,,0.00,,2013-04-16 21:52:00,
2013-04-16 15:02:00,53.0,34.0,30.02,West,263,15.0,25.0,49,0.00,,,0.00,,2013-04-16 22:02:00,
2013-04-16 15:12:00,53.0,34.0,30.02,West,263,15.0,25.0,49,0.00,,,0.00,,2013-04-16 22:12:00,
2013-04-16 15:22:00,53.0,38.0,30.02,WNW,285,13.0,23.0,57,0.00,,,0.00,,2013-04-16 22:22:00,
2013-04-16 15:32:00,53.0,42.0,30.02,West,269,14.0,23.0,67,0.00,,,0.00,,2013-04-16 22:32:00,
2013-04-16 15:42:00,53.0,42.0,30.02,West,269,14.0,23.0,67,0.00,,,0.00,,2013-04-16 22:42:00,
2013-04-16 15:52:00,53.0,43.0,30.01,WNW,288,9.0,18.0,69,0.00,,,0.00,,2013-04-16 22:52:00,
2013-04-16 16:02:00,53.0,42.0,30.01,West,275,13.0,21.0,67,0.00,,,0.00,,2013-04-16 23:02:00,
2013-04-16 16:11:00,53.0,42.0,30.01,West,275,13.0,21.0,67,0.00,,,0.00,,2013-04-16 23:11:00,
2013-04-16 16:22:00,52.0,42.0,30.01,WNW,299,13.0,23.0,68,0.00,,,0.00,,2013-04-16 23:22:00,
2013-04-16 16:32:00,53.0,42.0,30.00,WNW,288,13.0,24.0,66,0.00,,,0.00,,2013-04-16 23:32:00,
2013-04-16 16:42:00,53.0,42.0,30.00,WNW,288,13.0,24.0,66,0.00,,,0.00,,2013-04-16 23:42:00,
2013-04-16 16:51:00,53.0,41.0,30.00,West,259,16.0,23.0,64,0.00,,,0.00,,2013-04-16 23:51:00,
2013-04-16 17:02:00,53.0,41.0,30.00,NW,309,13.0,20.0,63,0.00,,,0.00,,2013-04-17 00:02:00,
2013-04-16 17:11:00,53.0,41.0,30.00,NW,309,13.0,20.0,63,0.00,,,0.00,,2013-04-17 00:11:00,
2013-04-16 17:22:00,53.0,42.0,29.99,WNW,286,14.0,22.0,65,0.00,,,0.00,,2013-04-17 00:22:00,
2013-04-16 17:32:00,53.0,42.0,29.99,WNW,290,13.0,20.0,67,0.00,,,0.00,,2013-04-17 00:32:00,
2013-04-16 17:42:00,53.0,42.0,29.99,WNW,290,13.0,20.0,67,0.00,,,0.00,,2013-04-17 00:42:00,
2013-04-16 17:52:00,51.0,40.0,29.99,WNW,301,18.0,24.0,66,0.00,,,0.00,,2013-04-17 00:52:00,
2013-04-16 18:02:00,51.0,41.0,29.99,WNW,290,14.0,22.0,69,0.00,,,0.00,,2013-04-17 01:02:00,
2013-04-16 18:11:00,51.0,41.0,29.99,WNW,290,14.0,22.0,69,0.00,,,0.00,,2013-04-17 01:11:00,
2013-04-16 18:21:00,51.0,41.0,29.99,WNW,298,13.0,21.0,68,0.00,,,0.00,,2013-04-17 01:21:00,
2013-04-16 18:32:00,51.0,42.0,29.99,WNW,301,9.0,16.0,70,0.00,,,0.00,,2013-04-17 01:32:00,
2013-04-16 18:42:00,51.0,42.0,29.99,WNW,301,9.0,16.0,70,0.00,,,0.00,,2013-04-17 01:42:00,
2013-04-16 18:52:00,50.0,41.0,29.99,NW,311,11.0,18.0,71,0.00,,,0.00,,2013-04-17 01:52:00,
2013-04-16 19:02:00,50.0,40.0,29.99,WNW,301,12.0,18.0,69,0.00,,,0.00,,2013-04-17 02:02:00,
2013-04-16 19:11:00,50.0,40.0,29.99,WNW,301,12.0,18.0,69,0.00,,,0.00,,2013-04-17 02:11:00,
2013-04-16 19:22:00,50.0,39.0,29.99,West,273,16.0,21.0,67,0.00,,,0.00,,2013-04-17 02:22:00,
2013-04-16 19:32:00,50.0,39.0,29.98,WNW,298,16.0,28.0,67,0.00,,,0.00,,2013-04-17 02:32:00,
2013-04-16 19:42:00,50.0,39.0,29.98,WNW,298,16.0,28.0,67,0.00,,,0.00,,2013-04-17 02:42:00,
2013-04-16 19:52:00,50.0,40.0,29.99,NNW,330,12.0,20.0,68,0.00,,,0.00,,2013-04-17 02:52:00,
2013-04-16 20:02:00,49.0,40.0,30.00,West,279,12.0,18.0,72,0.00,,,0.00,,2013-04-17 03:02:00,
2013-04-16 20:12:00,49.0,40.0,30.00,West,279,12.0,18.0,72,0.00,,,0.00,,2013-04-17 03:12:00,
2013-04-16 20:22:00,50.0,40.0,30.00,WNW,301,11.0,15.0,68,0.00,,,0.00,,2013-04-17 03:22:00,
2013-04-16 20:32:00,51.0,38.0,30.01,WNW,285,5.0,15.0,60,0.00,,,0.00,,2013-04-17 03:32:00,
2013-04-16 20:42:00,51.0,38.0,30.01,WNW,285,5.0,15.0,60,0.00,,,0.00,,2013-04-17 03:42:00,
2013-04-16 20:53:00,53.0,31.0,30.01,WNW,302,7.0,11.0,43,0.00,,,0.00,,2013-04-17 03:53:00,
2013-04-16 21:03:00,51.0,36.0,30.02,WSW,248,6.0,19.0,56,0.00,,,0.00,,2013-04-17 04:03:00,
2013-04-16 21:12:00,51.0,36.0,30.02,WSW,248,6.0,19.0,56,0.00,,,0.00,,2013-04-17 04:12:00,
2013-04-16 21:22:00,52.0,31.0,30.03,ESE,120,1.0,8.0,45,0.00,,,0.00,,2013-04-17 04:22:00,
2013-04-16 21:33:00,53.0,34.0,30.04,NNW,337,4.0,8.0,49,0.00,,,0.00,,2013-04-17 04:33:00,
2013-04-16 21:42:00,53.0,34.0,30.04,NNW,337,4.0,8.0,49,0.00,,,0.00,,2013-04-17 04:42:00,
2013-04-16 21:52:00,54.0,32.0,30.05,NE,40,2.0,14.0,43,0.00,,,0.00,,2013-04-17 04:52:00,
2013-04-16 22:02:00,53.0,32.0,30.05,ENE,76,3.0,9.0,44,0.00,,,0.00,,2013-04-17 05:02:00,
2013-04-16 22:12:00,53.0,32.0,30.05,ENE,76,3.0,9.0,44,0.00,,,0.00,,2013-04-17 05:12:00,
2013-04-16 22:22:00,54.0,30.0,30.06,NE,46,12.0,23.0,39,0.00,,,0.00,,2013-04-17 05:22:00,
2013-04-16 22:32:00,54.0,27.0,30.06,NE,53,10.0,22.0,35,0.00,,,0.00,,2013-04-17 05:32:00,
2013-04-16 22:42:00,54.0,27.0,30.06,NE,53,10.0,22.0,35,0.00,,,0.00,,2013-04-17 05:42:00,
2013-04-16 22:52:00,53.0,25.0,30.06,NNW,342,1.0,11.0,33,0.00,,,0.00,,2013-04-17 05:52:00,
2013-04-16 23:02:00,53.0,26.0,30.07,WNW,284,6.0,9.0,35,0.00,,,0.00,,2013-04-17 06:02:00,
2013-04-16 23:12:00,53.0,26.0,30.07,WNW,284,6.0,9.0,35,0.00,,,0.00,,2013-04-17 06:12:00,
2013-04-16 23:22:00,53.0,27.0,30.07,WNW,298,5.0,10.0,37,0.00,,,0.00,,2013-04-17 06:22:00,
2013-04-16 23:32:00,53.0,25.0,30.07,West,267,6.0,12.0,33,0.00,,,0.00,,2013-04-17 06:32:00,
2013-04-16 23:42:00,53.0,25.0,30.07,West,267,6.0,12.0,33,0.00,,,0.00,,2013-04-17 06:42:00,
2013-04-16 23:51:00,52.0,24.0,30.07,SW,233,5.0,11.0,33,0.00,,,0.00,,2013-04-17 06:51:00,